Time;durP1;ratioP1;P1;durP2;ratioP2;P2;SDS_P1;SDS_P2;PMS_P1;PMS_P2;Temp;Humidity;BMP_temperature;BMP_pressure;BME280_temperature;BME280_humidity;BME280_pressure;Samples;Min_cycle;Max_cycle;Signal;HPM_P1;HPM_P2
2022/05/07 00:02:17;;;;;;;;;;;12.70;99.90;;;;;;4987399;28;19933;-80
2022/05/07 00:04:44;;;;;;;;;;;12.70;99.90;;;;;;4986548;28;19988;-80
2022/05/07 00:07:12;;;;;;;;;;;12.70;99.90;;;;;;4987410;28;19925;-80
2022/05/07 00:09:39;;;;;;;;;;;12.70;99.90;;;;;;4986546;28;19934;-80
2022/05/07 00:12:07;;;;;;;;;;;12.60;99.90;;;;;;4985978;28;19965;-80
2022/05/07 00:14:34;;;;;;;;;;;12.60;99.90;;;;;;4983262;28;20320;-80
2022/05/07 00:19:47;;;;;;;;;;;12.60;99.90;;;;;;4987548;28;19930;-80
2022/05/07 00:22:15;;;;;;;;;;;12.60;99.90;;;;;;4984616;28;19984;-81
2022/05/07 00:24:42;;;;;;;;;;;12.60;99.90;;;;;;4987002;28;19940;-80
2022/05/07 00:27:09;;;;;;;;;;;12.60;99.90;;;;;;4987925;28;19926;-80
2022/05/07 00:29:36;;;;;;;;;;;12.60;99.90;;;;;;4983631;28;19937;-81
2022/05/07 00:32:03;;;;;;;;;;;12.50;99.90;;;;;;4984793;28;19941;-80
2022/05/07 00:34:30;;;;;;;;;;;12.50;99.90;;;;;;4988302;28;19926;-81
2022/05/07 00:36:57;;;;;;;;;;;12.50;99.90;;;;;;4986493;28;19936;-80
2022/05/07 00:39:26;;;;;;;;;;;12.50;99.90;;;;;;4984377;28;20396;-80
2022/05/07 00:41:53;;;;;;;;;;;12.50;99.90;;;;;;4987592;28;20320;-80
2022/05/07 00:44:22;;;;;;;;;;;12.50;99.90;;;;;;4981565;28;19957;-80
2022/05/07 00:46:49;;;;;;;;;;;12.50;99.90;;;;;;4982336;28;20496;-80
2022/05/07 00:49:16;;;;;;;;;;;12.40;99.90;;;;;;4986907;28;19936;-81
2022/05/07 00:51:42;;;;;;;;;;;12.40;99.90;;;;;;4985104;28;19962;-80
2022/05/07 00:54:10;;;;;;;;;;;12.40;99.90;;;;;;4981835;28;19921;-80
2022/05/07 00:56:41;;;;;;;;;;;12.40;99.90;;;;;;4985573;28;19941;-81
2022/05/07 00:59:10;;;;;;;;;;;12.30;99.90;;;;;;4985832;28;19926;-80
2022/05/07 01:01:37;;;;;;;;;;;12.40;99.90;;;;;;4986275;28;20032;-80
2022/05/07 01:04:04;;;;;;;;;;;12.30;99.90;;;;;;4979545;28;19930;-80
2022/05/07 01:06:34;;;;;;;;;;;12.30;99.90;;;;;;4988415;28;19933;-80
2022/05/07 01:09:03;;;;;;;;;;;12.30;99.90;;;;;;4990324;28;19934;-80
2022/05/07 01:11:32;;;;;;;;;;;12.30;99.90;;;;;;4986913;28;19933;-80
2022/05/07 01:14:02;;;;;;;;;;;12.30;99.90;;;;;;4980673;28;19926;-80
2022/05/07 01:16:31;;;;;;;;;;;12.30;99.90;;;;;;4987928;28;19936;-80
2022/05/07 01:18:58;;;;;;;;;;;12.20;99.90;;;;;;4984697;28;19929;-80
2022/05/07 01:21:27;;;;;;;;;;;12.20;99.90;;;;;;4980603;28;19934;-81
2022/05/07 01:23:56;;;;;;;;;;;12.20;99.90;;;;;;4987651;28;20431;-81
2022/05/07 01:26:28;;;;;;;;;;;12.20;99.90;;;;;;4983253;28;20032;-81
2022/05/07 01:28:59;;;;;;;;;;;12.20;99.90;;;;;;4982396;28;19930;-80
2022/05/07 01:31:27;;;;;;;;;;;12.20;99.90;;;;;;4985630;28;19961;-79
2022/05/07 01:33:54;;;;;;;;;;;12.20;99.90;;;;;;4984994;28;20303;-81
2022/05/07 01:36:23;;;;;;;;;;;12.20;99.90;;;;;;4987837;28;19925;-80
2022/05/07 01:38:58;;;;;;;;;;;12.10;99.90;;;;;;4983222;28;19929;-80
2022/05/07 01:41:25;;;;;;;;;;;12.10;99.90;;;;;;4985489;28;19932;-80
2022/05/07 01:43:53;;;;;;;;;;;12.10;99.90;;;;;;4987819;28;19940;-80
2022/05/07 01:49:14;;;;;;;;;;;12.10;99.90;;;;;;4952884;28;20255;-80
2022/05/07 01:51:41;;;;;;;;;;;12.10;99.90;;;;;;4993156;28;19930;-80
2022/05/07 01:54:10;;;;;;;;;;;12.00;99.90;;;;;;4996104;28;21320;-80
2022/05/07 01:56:38;;;;;;;;;;;12.00;99.90;;;;;;4987092;28;20356;-80
2022/05/07 01:59:06;;;;;;;;;;;12.00;99.90;;;;;;4987993;28;19926;-80
2022/05/07 02:01:33;;;;;;;;;;;12.00;99.90;;;;;;4986729;28;20010;-80
2022/05/07 02:04:00;;;;;;;;;;;12.00;99.90;;;;;;4989255;28;19932;-80
2022/05/07 02:06:29;;;;;;;;;;;12.00;99.90;;;;;;4991232;28;20352;-80
2022/05/07 02:08:56;;;;;;;;;;;12.00;99.90;;;;;;4989831;28;19929;-80
2022/05/07 02:11:31;;;;;;;;;;;11.90;99.90;;;;;;4989060;28;19930;-80
2022/05/07 02:13:58;;;;;;;;;;;11.90;99.90;;;;;;4990580;28;19929;-80
2022/05/07 02:16:26;;;;;;;;;;;11.90;99.90;;;;;;4988653;28;19926;-80
2022/05/07 02:18:53;;;;;;;;;;;11.90;99.90;;;;;;4989900;28;19926;-80
2022/05/07 02:21:20;;;;;;;;;;;11.90;99.90;;;;;;4984795;28;19926;-80
2022/05/07 02:23:46;;;;;;;;;;;11.90;99.90;;;;;;4989537;28;20335;-79
2022/05/07 02:26:13;;;;;;;;;;;11.80;99.90;;;;;;4990734;28;19992;-80
2022/05/07 02:28:42;;;;;;;;;;;11.90;99.90;;;;;;4986125;28;20269;-81
2022/05/07 02:31:10;;;;;;;;;;;11.80;99.90;;;;;;4988275;28;19926;-80
2022/05/07 02:33:38;;;;;;;;;;;11.80;99.90;;;;;;4988558;28;19934;-80
2022/05/07 02:36:09;;;;;;;;;;;11.80;99.90;;;;;;4989551;28;20635;-80
2022/05/07 02:38:38;;;;;;;;;;;11.80;99.90;;;;;;4982560;28;19926;-80
2022/05/07 02:43:53;;;;;;;;;;;11.80;99.90;;;;;;4985375;28;19926;-81
2022/05/07 02:46:20;;;;;;;;;;;11.70;99.90;;;;;;4983883;28;19992;-80
2022/05/07 02:48:47;;;;;;;;;;;11.70;99.90;;;;;;4989841;28;20415;-80
2022/05/07 02:51:19;;;;;;;;;;;11.70;99.90;;;;;;4984652;28;20017;-80
2022/05/07 02:53:46;;;;;;;;;;;11.70;99.90;;;;;;4982846;28;19933;-81
2022/05/07 02:56:12;;;;;;;;;;;11.70;99.90;;;;;;4985503;28;19929;-79
2022/05/07 02:58:39;;;;;;;;;;;11.70;99.90;;;;;;4989412;28;19969;-80
2022/05/07 03:01:09;;;;;;;;;;;11.70;99.90;;;;;;4984900;28;20400;-80
2022/05/07 03:03:37;;;;;;;;;;;11.70;99.90;;;;;;4986331;28;20033;-80
2022/05/07 03:06:06;;;;;;;;;;;11.60;99.90;;;;;;4989984;28;20025;-80
2022/05/07 03:08:36;;;;;;;;;;;11.60;99.90;;;;;;4987343;28;19926;-79
2022/05/07 03:11:03;;;;;;;;;;;11.60;99.90;;;;;;4984824;28;20410;-79
2022/05/07 03:13:31;;;;;;;;;;;11.60;99.90;;;;;;4988112;28;19930;-80
2022/05/07 03:15:58;;;;;;;;;;;11.60;99.90;;;;;;4990663;28;19976;-79
2022/05/07 03:18:27;;;;;;;;;;;11.60;99.90;;;;;;4987965;28;19925;-80
2022/05/07 03:20:56;;;;;;;;;;;11.60;99.90;;;;;;4988010;28;19926;-80
2022/05/07 03:23:23;;;;;;;;;;;11.50;99.90;;;;;;4989712;28;19925;-80
2022/05/07 03:25:57;;;;;;;;;;;11.50;99.90;;;;;;4984133;28;19934;-80
2022/05/07 03:28:24;;;;;;;;;;;11.50;99.90;;;;;;4983353;28;21494;-80
2022/05/07 03:30:51;;;;;;;;;;;11.50;99.90;;;;;;4989396;28;19932;-80
2022/05/07 03:33:19;;;;;;;;;;;11.50;99.90;;;;;;4984785;28;20195;-80
2022/05/07 03:35:48;;;;;;;;;;;11.50;99.90;;;;;;4988628;28;20328;-80
2022/05/07 03:38:15;;;;;;;;;;;11.50;99.90;;;;;;4984627;28;19938;-80
2022/05/07 03:40:55;;;;;;;;;;;11.50;99.90;;;;;;4989771;28;19929;-78
2022/05/07 03:43:27;;;;;;;;;;;11.40;99.90;;;;;;4979841;28;19930;-80
2022/05/07 03:45:54;;;;;;;;;;;11.40;99.90;;;;;;4988657;28;19926;-80
2022/05/07 03:48:22;;;;;;;;;;;11.40;99.90;;;;;;4988157;28;19926;-79
2022/05/07 03:50:53;;;;;;;;;;;;;;;;;;4984831;28;20292;-80
2022/05/07 03:53:29;;;;;;;;;;;11.40;99.90;;;;;;4985123;28;19926;-79
2022/05/07 03:56:02;;;;;;;;;;;11.40;99.90;;;;;;4990753;28;20402;-79
2022/05/07 03:58:33;;;;;;;;;;;11.40;99.90;;;;;;4985530;28;20343;-79
2022/05/07 04:01:01;;;;;;;;;;;11.40;99.90;;;;;;4981598;28;19938;-79
2022/05/07 04:03:29;;;;;;;;;;;11.30;99.90;;;;;;4986403;28;19930;-79
2022/05/07 04:05:59;;;;;;;;;;;11.30;99.90;;;;;;4990560;28;19926;-80
2022/05/07 04:08:28;;;;;;;;;;;11.30;99.90;;;;;;4983372;28;19933;-80
2022/05/07 04:10:58;;;;;;;;;;;11.30;99.90;;;;;;4986495;28;19933;-81
2022/05/07 04:13:27;;;;;;;;;;;11.30;99.90;;;;;;4985365;28;19929;-79
2022/05/07 04:16:00;;;;;;;;;;;11.30;99.90;;;;;;4982568;28;19988;-80
2022/05/07 04:18:32;;;;;;;;;;;11.30;99.90;;;;;;4984814;28;19925;-81
2022/05/07 04:21:03;;;;;;;;;;;11.30;99.90;;;;;;4988919;28;21138;-79
2022/05/07 04:23:31;;;;;;;;;;;11.20;99.90;;;;;;4987024;28;20354;-79
2022/05/07 04:25:58;;;;;;;;;;;11.20;99.90;;;;;;4978045;28;20029;-79
2022/05/07 04:28:28;;;;;;;;;;;11.20;99.90;;;;;;4986601;28;19934;-80
2022/05/07 04:30:57;;;;;;;;;;;11.20;99.90;;;;;;4982839;28;20313;-79
2022/05/07 04:33:28;;;;;;;;;;;11.20;99.90;;;;;;4987231;28;19925;-79
2022/05/07 04:36:01;;;;;;;;;;;11.20;99.90;;;;;;4981881;28;20412;-80
2022/05/07 04:38:28;;;;;;;;;;;11.20;99.90;;;;;;4986234;28;20551;-79
2022/05/07 04:40:57;;;;;;;;;;;11.20;99.90;;;;;;4983910;28;19929;-79
2022/05/07 04:43:29;;;;;;;;;;;11.20;99.90;;;;;;4981674;28;19948;-80
2022/05/07 04:45:56;;;;;;;;;;;11.10;99.90;;;;;;4988355;28;19961;-79
2022/05/07 04:48:24;;;;;;;;;;;11.10;99.90;;;;;;4978155;28;20423;-80
2022/05/07 04:50:51;;;;;;;;;;;11.10;99.90;;;;;;4980233;28;19926;-79
2022/05/07 04:53:25;;;;;;;;;;;11.10;99.90;;;;;;4982058;28;19934;-79
2022/05/07 04:55:54;;;;;;;;;;;11.10;99.90;;;;;;4985295;28;20025;-80
2022/05/07 04:58:24;;;;;;;;;;;11.10;99.90;;;;;;4977472;28;20307;-80
2022/05/07 05:00:52;;;;;;;;;;;11.10;99.90;;;;;;4981899;28;20389;-79
2022/05/07 05:03:22;;;;;;;;;;;11.10;99.90;;;;;;4978962;28;19926;-79
2022/05/07 05:06:10;;;;;;;;;;;11.10;99.90;;;;;;4979198;28;19933;-79
2022/05/07 05:08:53;;;;;;;;;;;11.10;99.90;;;;;;4983192;28;19940;-79
2022/05/07 05:11:21;;;;;;;;;;;11.10;99.90;;;;;;4983933;28;19969;-79
2022/05/07 05:13:50;;;;;;;;;;;11.00;99.90;;;;;;4973126;28;19934;-80
2022/05/07 05:16:18;;;;;;;;;;;11.00;99.90;;;;;;4982237;28;19985;-79
2022/05/07 05:18:48;;;;;;;;;;;11.00;99.90;;;;;;4980210;28;20430;-82
2022/05/07 05:21:19;;;;;;;;;;;11.00;99.90;;;;;;4972084;28;19926;-79
2022/05/07 05:24:18;;;;;;;;;;;11.00;99.90;;;;;;4964237;28;20560;-79
2022/05/07 05:26:46;;;;;;;;;;;11.00;99.90;;;;;;4964937;28;19944;-79
2022/05/07 05:29:19;;;;;;;;;;;11.00;99.90;;;;;;4964908;28;19969;-80
2022/05/07 05:31:46;;;;;;;;;;;11.00;99.90;;;;;;4960666;28;19972;-79
2022/05/07 05:34:33;;;;;;;;;;;11.00;99.90;;;;;;4973352;28;19940;-79
2022/05/07 05:37:01;;;;;;;;;;;11.00;99.90;;;;;;4979079;28;19981;-80
2022/05/07 05:39:30;;;;;;;;;;;11.00;99.90;;;;;;4970196;28;20550;-78
2022/05/07 05:41:59;;;;;;;;;;;11.00;99.90;;;;;;4982856;28;19972;-80
2022/05/07 05:44:29;;;;;;;;;;;11.00;99.90;;;;;;4979048;28;19970;-82
2022/05/07 05:46:56;;;;;;;;;;;11.00;99.90;;;;;;4986874;28;19988;-80
2022/05/07 05:49:26;;;;;;;;;;;11.00;99.90;;;;;;4981551;28;19940;-81
2022/05/07 05:51:57;;;;;;;;;;;11.00;99.90;;;;;;4980164;28;19945;-83
2022/05/07 05:54:24;;;;;;;;;;;11.00;99.90;;;;;;4983169;28;19998;-80
2022/05/07 05:56:54;;;;;;;;;;;11.00;99.90;;;;;;4977918;28;19926;-80
2022/05/07 05:59:21;;;;;;;;;;;10.90;99.90;;;;;;4978343;28;19929;-80
2022/05/07 06:01:55;;;;;;;;;;;10.90;99.90;;;;;;4965906;28;19971;-81
2022/05/07 06:04:33;;;;;;;;;;;11.00;99.90;;;;;;4971276;28;19957;-82
2022/05/07 06:07:06;;;;;;;;;;;11.00;99.90;;;;;;4975956;28;19933;-78
2022/05/07 06:09:36;;;;;;;;;;;11.00;99.90;;;;;;4974504;28;19934;-78
2022/05/07 06:12:07;;;;;;;;;;;10.90;99.90;;;;;;4983313;28;20025;-79
2022/05/07 06:14:34;;;;;;;;;;;10.90;99.90;;;;;;4980860;28;20402;-79
2022/05/07 06:17:05;;;;;;;;;;;10.90;99.90;;;;;;4973493;28;20045;-79
2022/05/07 06:19:32;;;;;;;;;;;11.00;99.90;;;;;;4968061;28;19933;-80
2022/05/07 06:22:00;;;;;;;;;;;11.00;99.90;;;;;;4957736;28;19981;-78
2022/05/07 06:27:31;;;;;;;;;;;11.00;99.90;;;;;;4965693;28;20839;-80
2022/05/07 06:30:04;;;;;;;;;;;11.00;99.90;;;;;;4988246;28;20016;-79
2022/05/07 06:32:35;;;;;;;;;;;11.10;99.90;;;;;;4973199;28;19962;-76
2022/05/07 06:35:07;;;;;;;;;;;11.10;99.90;;;;;;4960710;28;19965;-77
2022/05/07 06:37:48;;;;;;;;;;;11.10;99.90;;;;;;4963100;28;19934;-77
2022/05/07 06:40:16;;;;;;;;;;;11.10;99.90;;;;;;4968200;28;19940;-75
2022/05/07 06:42:48;;;;;;;;;;;11.10;99.90;;;;;;4960230;28;20423;-76
2022/05/07 06:45:24;;;;;;;;;;;11.10;99.90;;;;;;4965358;28;19969;-79
2022/05/07 06:47:52;;;;;;;;;;;11.10;99.90;;;;;;4955914;28;19930;-77
2022/05/07 06:50:20;;;;;;;;;;;11.10;99.90;;;;;;4966645;28;20344;-79
2022/05/07 06:52:48;;;;;;;;;;;11.10;99.90;;;;;;4964977;28;19930;-77
2022/05/07 06:55:15;;;;;;;;;;;11.10;99.90;;;;;;4967509;28;19941;-77
2022/05/07 06:57:42;;;;;;;;;;;11.10;99.90;;;;;;4967654;28;20040;-77
2022/05/07 07:00:09;;;;;;;;;;;11.10;99.90;;;;;;4957758;28;19956;-78
2022/05/07 07:02:36;;;;;;;;;;;11.10;99.90;;;;;;4963728;28;20025;-77
2022/05/07 07:05:05;;;;;;;;;;;11.10;99.90;;;;;;4974633;28;20400;-78
2022/05/07 07:07:32;;;;;;;;;;;11.10;99.90;;;;;;4974749;28;19937;-78
2022/05/07 07:09:59;;;;;;;;;;;11.20;99.90;;;;;;4963255;28;19934;-78
2022/05/07 07:12:26;;;;;;;;;;;11.20;99.90;;;;;;4978387;28;21586;-78
2022/05/07 07:14:53;;;;;;;;;;;11.20;99.90;;;;;;4967834;28;19976;-76
2022/05/07 07:17:20;;;;;;;;;;;11.20;99.90;;;;;;4957813;28;19973;-76
2022/05/07 07:19:47;;;;;;;;;;;11.20;99.90;;;;;;4969236;28;19934;-77
2022/05/07 07:22:16;;;;;;;;;;;11.20;99.90;;;;;;4960509;28;19977;-76
2022/05/07 07:24:43;;;;;;;;;;;11.20;99.90;;;;;;4972751;28;19932;-76
2022/05/07 07:27:10;;;;;;;;;;;11.20;99.90;;;;;;4962129;28;19934;-76
2022/05/07 07:29:37;;;;;;;;;;;11.20;99.90;;;;;;4969758;28;19969;-77
2022/05/07 07:32:05;;;;;;;;;;;11.20;99.90;;;;;;4960132;28;20012;-77
2022/05/07 07:34:31;;;;;;;;;;;11.20;99.90;;;;;;4966009;28;20054;-76
2022/05/07 07:36:58;;;;;;;;;;;11.20;99.90;;;;;;4965147;28;19927;-76
2022/05/07 07:39:27;;;;;;;;;;;11.20;99.90;;;;;;4952063;28;19934;-77
2022/05/07 07:41:54;;;;;;;;;;;11.30;99.90;;;;;;4964296;28;19926;-77
2022/05/07 07:44:21;;;;;;;;;;;11.30;99.90;;;;;;4979104;28;19988;-78
2022/05/07 07:49:33;;;;;;;;;;;11.30;99.90;;;;;;4973640;28;19921;-77
2022/05/07 07:52:00;;;;;;;;;;;11.40;99.90;;;;;;4976596;28;19925;-78
2022/05/07 07:54:28;;;;;;;;;;;11.30;99.90;;;;;;4968087;28;19926;-78
2022/05/07 07:56:58;;;;;;;;;;;11.40;99.90;;;;;;4967299;28;19926;-76
2022/05/07 07:59:25;;;;;;;;;;;11.60;99.90;;;;;;4958106;28;20005;-78
2022/05/07 08:01:52;;;;;;;;;;;11.80;99.90;;;;;;4970107;28;19934;-77
2022/05/07 08:04:20;;;;;;;;;;;11.80;99.90;;;;;;4960621;28;19934;-77
2022/05/07 08:11:40;;;;;;;;;;;11.90;99.90;;;;;;4966249;28;20005;-78
2022/05/07 08:12:20;;;;;;;;;;;12.00;99.90;;;;;;4959488;28;19941;-78
2022/05/07 08:14:47;;;;;;;;;;;12.00;99.90;;;;;;4963307;28;19941;-78
2022/05/07 08:17:15;;;;;;;;;;;12.10;99.90;;;;;;4968213;28;19934;-78
2022/05/07 08:19:43;;;;;;;;;;;12.20;99.90;;;;;;4971606;28;19930;-77
2022/05/07 08:22:10;;;;;;;;;;;12.20;99.90;;;;;;4955194;28;20000;-78
2022/05/07 08:24:38;;;;;;;;;;;12.20;99.90;;;;;;4975596;28;20471;-78
2022/05/07 08:27:06;;;;;;;;;;;12.30;99.90;;;;;;4981047;28;20459;-78
2022/05/07 08:29:33;;;;;;;;;;;12.30;99.90;;;;;;4971805;28;19926;-78
2022/05/07 08:32:00;;;;;;;;;;;12.50;99.90;;;;;;4962671;28;20884;-78
2022/05/07 08:34:27;;;;;;;;;;;12.50;99.90;;;;;;4967745;28;19934;-76
2022/05/07 08:36:54;;;;;;;;;;;12.50;99.90;;;;;;4969562;28;19926;-76
2022/05/07 08:39:24;;;;;;;;;;;12.70;99.90;;;;;;4970003;28;19964;-77
2022/05/07 08:41:53;;;;;;;;;;;12.70;99.90;;;;;;4971327;28;21085;-76
2022/05/07 08:44:20;;;;;;;;;;;12.50;99.90;;;;;;4967869;28;19957;-76
2022/05/07 08:46:46;;;;;;;;;;;12.50;99.90;;;;;;4969670;28;19945;-79
2022/05/07 08:49:13;;;;;;;;;;;12.50;99.90;;;;;;4966757;28;20029;-78
2022/05/07 08:51:42;;;;;;;;;;;12.50;99.90;;;;;;4973687;28;19988;-76
2022/05/07 08:54:11;;;;;;;;;;;12.50;99.90;;;;;;4964308;28;19934;-76
2022/05/07 08:56:38;;;;;;;;;;;12.50;99.90;;;;;;4969990;28;20037;-78
2022/05/07 08:59:06;;;;;;;;;;;12.60;99.90;;;;;;4978874;28;19932;-78
2022/05/07 09:01:33;;;;;;;;;;;12.60;99.90;;;;;;4982726;28;19999;-79
2022/05/07 09:04:08;;;;;;;;;;;12.60;99.90;;;;;;4978676;28;19930;-79
2022/05/07 09:06:35;;;;;;;;;;;12.60;99.90;;;;;;4989629;28;20290;-78
2022/05/07 09:09:04;;;;;;;;;;;12.50;99.90;;;;;;4984690;28;20336;-77
2022/05/07 09:11:39;;;;;;;;;;;12.50;99.90;;;;;;4970912;28;19933;-78
2022/05/07 09:14:07;;;;;;;;;;;12.50;99.90;;;;;;4962327;28;21989;-79
2022/05/07 09:16:37;;;;;;;;;;;12.50;99.90;;;;;;4973330;28;20021;-78
2022/05/07 09:19:05;;;;;;;;;;;12.50;99.90;;;;;;4972908;28;19934;-79
2022/05/07 09:21:32;;;;;;;;;;;12.60;99.90;;;;;;4976175;28;20471;-79
2022/05/07 09:24:03;;;;;;;;;;;12.60;99.90;;;;;;4987403;28;20400;-79
2022/05/07 09:26:30;;;;;;;;;;;12.60;99.90;;;;;;4981101;28;20010;-78
2022/05/07 09:28:57;;;;;;;;;;;12.60;99.90;;;;;;4976079;28;19933;-79
2022/05/07 09:31:26;;;;;;;;;;;12.60;99.90;;;;;;4989587;28;19925;-79
2022/05/07 09:33:54;;;;;;;;;;;12.70;99.90;;;;;;4977282;28;19970;-79
2022/05/07 09:36:22;;;;;;;;;;;12.70;99.90;;;;;;4971981;28;19925;-78
2022/05/07 09:38:58;;;;;;;;;;;12.70;99.90;;;;;;4977375;28;19976;-79
2022/05/07 09:41:27;;;;;;;;;;;12.70;99.90;;;;;;4982272;28;20396;-79
2022/05/07 09:43:54;;;;;;;;;;;12.70;99.90;;;;;;4979491;28;19996;-77
2022/05/07 09:46:22;;;;;;;;;;;12.70;99.90;;;;;;4976314;28;19925;-78
2022/05/07 09:48:52;;;;;;;;;;;12.80;99.90;;;;;;4978020;28;19934;-78
2022/05/07 09:51:20;;;;;;;;;;;12.80;99.90;;;;;;4985623;28;20028;-78
2022/05/07 09:59:22;;;;;;;;;;;12.90;99.90;;;;;;4974601;28;19945;-78
2022/05/07 10:02:08;;;;;;;;;;;12.90;99.90;;;;;;4977821;28;19936;-79
2022/05/07 10:04:45;;;;;;;;;;;12.90;99.90;;;;;;4981272;28;19929;-79
2022/05/07 10:07:30;;;;;;;;;;;13.00;99.90;;;;;;4982199;28;19965;-77
2022/05/07 10:10:05;;;;;;;;;;;13.00;99.90;;;;;;4986554;28;19934;-78
2022/05/07 10:12:32;;;;;;;;;;;13.00;99.90;;;;;;4986594;28;20451;-78
2022/05/07 10:15:06;;;;;;;;;;;13.00;99.90;;;;;;4990148;28;19936;-79
2022/05/07 10:17:34;;;;;;;;;;;13.10;99.90;;;;;;4986634;28;19933;-79
2022/05/07 10:20:06;;;;;;;;;;;13.10;99.90;;;;;;4982736;28;19977;-78
2022/05/07 10:22:33;;;;;;;;;;;13.10;99.90;;;;;;4986396;28;20134;-79
2022/05/07 10:25:05;;;;;;;;;;;13.20;99.90;;;;;;4983343;28;20308;-79
2022/05/07 10:27:32;;;;;;;;;;;13.20;99.90;;;;;;4983036;28;19926;-78
2022/05/07 10:30:07;;;;;;;;;;;13.20;99.90;;;;;;4976523;28;19926;-79
2022/05/07 10:32:45;;;;;;;;;;;13.30;99.90;;;;;;4981853;28;19937;-78
2022/05/07 10:35:14;;;;;;;;;;;13.30;99.90;;;;;;5003809;28;19926;-79
2022/05/07 10:37:41;;;;;;;;;;;13.40;99.90;;;;;;4989491;28;20920;-79
2022/05/07 10:40:11;;;;;;;;;;;13.40;99.90;;;;;;4986520;28;19925;-78
2022/05/07 10:42:39;;;;;;;;;;;13.50;99.90;;;;;;4989074;28;19926;-79
2022/05/07 10:45:07;;;;;;;;;;;13.50;99.90;;;;;;4987297;28;19925;-79
2022/05/07 10:47:34;;;;;;;;;;;13.50;99.90;;;;;;4979043;28;20020;-78
2022/05/07 10:50:09;;;;;;;;;;;13.50;99.90;;;;;;4977426;28;19984;-78
2022/05/07 10:52:37;;;;;;;;;;;13.60;99.90;;;;;;4985766;28;19941;-78
2022/05/07 10:55:08;;;;;;;;;;;13.60;99.90;;;;;;4987094;28;19930;-79
2022/05/07 10:57:42;;;;;;;;;;;13.60;99.90;;;;;;4981129;28;19934;-78
2022/05/07 11:00:11;;;;;;;;;;;13.70;99.90;;;;;;4978708;28;20373;-79
2022/05/07 11:02:38;;;;;;;;;;;13.70;99.90;;;;;;4984130;28;19929;-79
2022/05/07 11:05:05;;;;;;;;;;;13.70;99.90;;;;;;4976827;28;19930;-80
2022/05/07 11:07:33;;;;;;;;;;;13.70;99.90;;;;;;4969915;28;19941;-78
2022/05/07 11:10:01;;;;;;;;;;;13.80;99.90;;;;;;4968959;28;20072;-78
2022/05/07 11:12:30;;;;;;;;;;;13.80;99.90;;;;;;4977341;28;19934;-80
2022/05/07 11:14:57;;;;;;;;;;;13.90;99.90;;;;;;4984193;28;20543;-80
2022/05/07 11:17:31;;;;;;;;;;;13.90;99.90;;;;;;4983732;28;19926;-79
2022/05/07 11:19:58;;;;;;;;;;;13.90;99.90;;;;;;4989005;28;19941;-80
2022/05/07 11:22:30;;;;;;;;;;;14.00;99.90;;;;;;4983612;28;19930;-80
2022/05/07 11:24:58;;;;;;;;;;;14.00;99.90;;;;;;4989340;28;19934;-79
2022/05/07 11:27:32;;;;;;;;;;;14.00;99.90;;;;;;4989503;28;19929;-80
2022/05/07 11:29:59;;;;;;;;;;;14.00;99.90;;;;;;4982452;28;20427;-80
2022/05/07 11:32:36;;;;;;;;;;;14.10;99.90;;;;;;4993231;28;20024;-79
2022/05/07 11:35:03;;;;;;;;;;;14.10;99.90;;;;;;4987839;28;20021;-79
2022/05/07 11:37:37;;;;;;;;;;;14.10;99.90;;;;;;4984251;28;19977;-79
2022/05/07 11:40:05;;;;;;;;;;;14.10;99.90;;;;;;4983879;28;19934;-79
2022/05/07 11:42:33;;;;;;;;;;;14.20;99.90;;;;;;4981565;28;19933;-81
2022/05/07 11:47:53;;;;;;;;;;;14.20;99.90;;;;;;4976371;28;19930;-79
2022/05/07 11:50:22;;;;;;;;;;;14.20;99.90;;;;;;4981760;28;19941;-79
2022/05/07 11:52:49;;;;;;;;;;;14.20;99.90;;;;;;4980838;28;19938;-79
2022/05/07 11:55:17;;;;;;;;;;;14.30;99.90;;;;;;4982064;28;19940;-79
2022/05/07 11:57:47;;;;;;;;;;;14.30;99.90;;;;;;4977976;28;20045;-78
2022/05/07 12:00:15;;;;;;;;;;;14.30;99.90;;;;;;4983469;28;19926;-79
2022/05/07 12:02:52;;;;;;;;;;;14.40;99.90;;;;;;4978204;28;19926;-78
2022/05/07 12:05:19;;;;;;;;;;;14.40;99.90;;;;;;4978499;28;19926;-79
2022/05/07 12:07:48;;;;;;;;;;;14.40;99.90;;;;;;4981347;28;19932;-79
2022/05/07 12:10:15;;;;;;;;;;;14.40;99.90;;;;;;4986114;28;19926;-79
2022/05/07 12:12:42;;;;;;;;;;;14.50;99.90;;;;;;4981437;28;19925;-79
2022/05/07 12:15:11;;;;;;;;;;;14.50;99.90;;;;;;4983660;28;19932;-81
2022/05/07 12:17:52;;;;;;;;;;;14.50;99.90;;;;;;4974465;28;19932;-80
2022/05/07 12:20:20;;;;;;;;;;;14.50;99.90;;;;;;4978523;28;20311;-79
2022/05/07 12:31:03;;;;;;;;;;;14.70;99.90;;;;;;4976308;28;19930;-79
2022/05/07 12:33:30;;;;;;;;;;;14.70;99.90;;;;;;4987209;28;19925;-79
2022/05/07 12:35:57;;;;;;;;;;;14.70;99.90;;;;;;4987131;28;19932;-80
2022/05/07 12:38:24;;;;;;;;;;;14.70;99.90;;;;;;4987457;28;19933;-78
2022/05/07 12:40:51;;;;;;;;;;;14.80;99.90;;;;;;4990122;28;19948;-80
2022/05/07 12:43:17;;;;;;;;;;;14.80;99.90;;;;;;4984961;28;19925;-80
2022/05/07 12:45:45;;;;;;;;;;;14.80;99.90;;;;;;4987056;28;19948;-79
2022/05/07 12:48:13;;;;;;;;;;;14.90;99.90;;;;;;4984093;28;19932;-78
2022/05/07 12:50:40;;;;;;;;;;;14.90;99.90;;;;;;4985867;28;19976;-79
2022/05/07 12:53:07;;;;;;;;;;;15.00;99.90;;;;;;4987216;28;20396;-79
2022/05/07 12:55:34;;;;;;;;;;;15.00;99.90;;;;;;4980517;28;19989;-79
2022/05/07 12:58:01;;;;;;;;;;;15.00;99.90;;;;;;4983239;28;19930;-79
2022/05/07 13:00:28;;;;;;;;;;;15.10;99.90;;;;;;4987920;28;20009;-78
2022/05/07 13:03:00;;;;;;;;;;;15.10;99.90;;;;;;4980945;28;20048;-82
2022/05/07 13:05:29;;;;;;;;;;;15.10;99.90;;;;;;4984651;28;19929;-82
2022/05/07 13:07:57;;;;;;;;;;;15.20;99.90;;;;;;4966443;28;19934;-82
2022/05/07 13:10:24;;;;;;;;;;;15.20;99.90;;;;;;4977745;28;19926;-82
2022/05/07 13:12:50;;;;;;;;;;;15.30;99.90;;;;;;4986883;28;20016;-82
2022/05/07 13:15:17;;;;;;;;;;;15.30;99.90;;;;;;4982090;28;19972;-83
2022/05/07 13:17:44;;;;;;;;;;;15.30;99.90;;;;;;4980891;28;20373;-82
2022/05/07 13:20:11;;;;;;;;;;;15.40;99.90;;;;;;4979244;28;19926;-82
2022/05/07 13:22:39;;;;;;;;;;;15.40;99.90;;;;;;4984643;28;20312;-79
2022/05/07 13:25:07;;;;;;;;;;;15.50;99.90;;;;;;4974859;28;19929;-80
2022/05/07 13:27:34;;;;;;;;;;;15.50;99.90;;;;;;4984529;28;20705;-82
2022/05/07 13:30:01;;;;;;;;;;;15.50;99.90;;;;;;4987429;28;20001;-82
2022/05/07 13:32:29;;;;;;;;;;;15.50;99.90;;;;;;4981105;28;19933;-82
2022/05/07 13:34:57;;;;;;;;;;;15.50;99.90;;;;;;4985482;28;21824;-82
2022/05/07 13:37:24;;;;;;;;;;;;;;;;;;4984255;28;19926;-82
2022/05/07 13:42:22;;;;;;;;;;;15.70;99.90;;;;;;4961892;28;19934;-79
2022/05/07 13:44:51;;;;;;;;;;;15.70;99.90;;;;;;4953107;28;19941;-79
2022/05/07 13:47:18;;;;;;;;;;;15.80;99.90;;;;;;4968056;28;20376;-78
2022/05/07 13:49:45;;;;;;;;;;;15.80;99.90;;;;;;4952508;28;19934;-79
2022/05/07 13:52:12;;;;;;;;;;;15.80;99.90;;;;;;4965127;28;19980;-79
2022/05/07 13:54:39;;;;;;;;;;;15.80;99.90;;;;;;4974205;28;19932;-79
2022/05/07 13:57:07;;;;;;;;;;;15.90;99.90;;;;;;4981590;28;19927;-80
2022/05/07 13:59:35;;;;;;;;;;;15.90;99.90;;;;;;4954711;28;19931;-79
2022/05/07 14:02:02;;;;;;;;;;;16.00;99.90;;;;;;4974125;28;19926;-80
2022/05/07 14:04:29;;;;;;;;;;;16.00;99.90;;;;;;4974399;28;19973;-78
2022/05/07 14:06:56;;;;;;;;;;;16.10;99.90;;;;;;4980330;28;20036;-78
2022/05/07 14:09:23;;;;;;;;;;;;;;;;;;4975822;28;19937;-78
2022/05/07 14:11:51;;;;;;;;;;;16.10;99.90;;;;;;4977831;28;19933;-78
2022/05/07 14:14:20;;;;;;;;;;;16.20;99.90;;;;;;4984301;28;20017;-78
2022/05/07 14:16:48;;;;;;;;;;;16.20;99.90;;;;;;4970029;28;19934;-79
2022/05/07 14:19:15;;;;;;;;;;;16.30;99.90;;;;;;4946884;28;19962;-79
2022/05/07 14:21:43;;;;;;;;;;;16.30;99.90;;;;;;4974453;28;19985;-79
2022/05/07 14:24:10;;;;;;;;;;;16.40;99.90;;;;;;4953455;28;19926;-81
2022/05/07 14:26:38;;;;;;;;;;;16.40;99.90;;;;;;4969833;28;19932;-81
2022/05/07 14:29:05;;;;;;;;;;;16.40;99.90;;;;;;4977593;28;19926;-79
2022/05/07 14:31:34;;;;;;;;;;;;;;;;;;4973506;28;19941;-77
2022/05/07 14:34:02;;;;;;;;;;;16.50;99.90;;;;;;4955463;28;19930;-77
2022/05/07 14:36:31;;;;;;;;;;;16.50;99.90;;;;;;4958493;28;19930;-79
2022/05/07 14:38:58;;;;;;;;;;;16.50;99.90;;;;;;4973053;28;20339;-79
2022/05/07 14:41:25;;;;;;;;;;;16.60;99.90;;;;;;4958264;28;19926;-79
2022/05/07 14:43:53;;;;;;;;;;;16.60;99.90;;;;;;4966424;28;19926;-78
2022/05/07 14:46:21;;;;;;;;;;;16.60;99.90;;;;;;4969993;28;19962;-77
2022/05/07 14:48:49;;;;;;;;;;;16.70;99.90;;;;;;4960153;28;19930;-79
2022/05/07 14:51:18;;;;;;;;;;;16.70;99.90;;;;;;4957745;28;19977;-81
2022/05/07 14:53:45;;;;;;;;;;;16.70;99.90;;;;;;4975354;28;20635;-82
2022/05/07 14:56:12;;;;;;;;;;;16.80;99.90;;;;;;4972387;28;20035;-81
2022/05/07 14:58:40;;;;;;;;;;;16.80;99.90;;;;;;4976673;28;19926;-82
2022/05/07 15:01:07;;;;;;;;;;;16.90;99.90;;;;;;4986172;28;19965;-82
2022/05/07 15:03:34;;;;;;;;;;;16.90;99.90;;;;;;4970104;28;19930;-81
2022/05/07 15:06:01;;;;;;;;;;;17.00;99.90;;;;;;4974458;28;19926;-82